sensor_id;sensor_type;location;lat;lon;timestamp;pressure;altitude;pressure_sealevel;temperature;humidity
65534;BME280;53640;55.838;37.184;2022-08-23T00:02:04;100042.38;;;21.96;32.53
65534;BME280;53640;55.838;37.184;2022-08-23T00:04:35;100019.53;;;21.80;32.53
65534;BME280;53640;55.838;37.184;2022-08-23T00:07:03;99960.28;;;21.37;32.27
65534;BME280;53640;55.838;37.184;2022-08-23T00:09:30;100046.28;;;21.90;32.60
65534;BME280;53640;55.838;37.184;2022-08-23T00:14:42;100027.25;;;21.83;32.84
65534;BME280;53640;55.838;37.184;2022-08-23T00:17:10;100060.59;;;21.97;32.80
65534;BME280;53640;55.838;37.184;2022-08-23T00:19:37;100028.63;;;21.76;32.86
65534;BME280;53640;55.838;37.184;2022-08-23T00:22:07;100013.75;;;21.72;33.21
65534;BME280;53640;55.838;37.184;2022-08-23T00:24:34;100051.78;;;21.90;32.91
65534;BME280;53640;55.838;37.184;2022-08-23T00:27:06;100041.31;;;21.77;33.17
65534;BME280;53640;55.838;37.184;2022-08-23T00:32:00;100038.00;;;21.75;33.25
65534;BME280;53640;55.838;37.184;2022-08-23T00:34:27;100033.56;;;21.74;32.65
65534;BME280;53640;55.838;37.184;2022-08-23T00:36:54;100044.34;;;21.80;32.77
65534;BME280;53640;55.838;37.184;2022-08-23T00:39:23;100045.19;;;21.71;32.97
65534;BME280;53640;55.838;37.184;2022-08-23T00:41:50;100036.91;;;21.76;33.17
65534;BME280;53640;55.838;37.184;2022-08-23T00:44:22;100030.28;;;21.67;33.10
65534;BME280;53640;55.838;37.184;2022-08-23T00:47:11;100072.44;;;21.93;33.07
65534;BME280;53640;55.838;37.184;2022-08-23T00:52:51;100059.78;;;21.76;33.23
65534;BME280;53640;55.838;37.184;2022-08-23T00:55:21;100081.56;;;21.83;33.07
65534;BME280;53640;55.838;37.184;2022-08-23T00:57:47;100050.13;;;21.53;33.22
65534;BME280;53640;55.838;37.184;2022-08-23T01:00:14;100042.38;;;21.55;33.15
65534;BME280;53640;55.838;37.184;2022-08-23T01:02:41;100060.06;;;21.59;33.81
65534;BME280;53640;55.838;37.184;2022-08-23T01:05:08;100043.47;;;21.44;33.52
65534;BME280;53640;55.838;37.184;2022-08-23T01:07:55;100084.31;;;21.68;33.54
65534;BME280;53640;55.838;37.184;2022-08-23T01:10:31;100051.75;;;21.44;34.00
65534;BME280;53640;55.838;37.184;2022-08-23T01:13:11;100093.41;;;21.63;33.83
65534;BME280;53640;55.838;37.184;2022-08-23T01:15:47;100096.69;;;21.60;34.21
65534;BME280;53640;55.838;37.184;2022-08-23T01:18:16;100093.13;;;21.59;33.72
65534;BME280;53640;55.838;37.184;2022-08-23T01:20:50;100067.69;;;21.37;34.08
65534;BME280;53640;55.838;37.184;2022-08-23T01:23:55;100092.81;;;21.51;34.26
65534;BME280;53640;55.838;37.184;2022-08-23T01:26:24;100040.91;;;21.17;34.13
65534;BME280;53640;55.838;37.184;2022-08-23T01:28:52;100064.34;;;21.25;34.37
65534;BME280;53640;55.838;37.184;2022-08-23T01:31:21;100099.34;;;21.39;34.70
65534;BME280;53640;55.838;37.184;2022-08-23T01:34:14;100080.63;;;21.26;34.95
65534;BME280;53640;55.838;37.184;2022-08-23T01:36:44;100089.69;;;21.27;34.87
65534;BME280;53640;55.838;37.184;2022-08-23T01:39:11;100021.81;;;20.80;34.78
65534;BME280;53640;55.838;37.184;2022-08-23T01:41:39;100103.47;;;21.27;34.96
65534;BME280;53640;55.838;37.184;2022-08-23T01:44:07;100113.38;;;21.28;35.12
65534;BME280;53640;55.838;37.184;2022-08-23T01:46:43;100080.81;;;21.04;34.79
65534;BME280;53640;55.838;37.184;2022-08-23T01:49:14;100075.03;;;21.01;35.19
65534;BME280;53640;55.838;37.184;2022-08-23T01:51:43;100116.38;;;21.21;35.17
65534;BME280;53640;55.838;37.184;2022-08-23T01:54:10;100077.47;;;20.97;35.16
65534;BME280;53640;55.838;37.184;2022-08-23T01:56:38;100112.78;;;21.15;35.14
65534;BME280;53640;55.838;37.184;2022-08-23T01:59:08;100083.00;;;20.97;35.42
65534;BME280;53640;55.838;37.184;2022-08-23T02:01:40;100123.22;;;21.13;35.57
65534;BME280;53640;55.838;37.184;2022-08-23T02:04:06;100122.94;;;21.10;35.18
65534;BME280;53640;55.838;37.184;2022-08-23T02:06:33;100092.31;;;20.91;35.79
65534;BME280;53640;55.838;37.184;2022-08-23T02:09:01;100105.00;;;20.97;35.59
65534;BME280;53640;55.838;37.184;2022-08-23T02:11:33;100015.56;;;20.37;35.68
65534;BME280;53640;55.838;37.184;2022-08-23T02:14:03;100081.50;;;20.74;35.78
65534;BME280;53640;55.838;37.184;2022-08-23T02:16:48;100118.19;;;20.95;35.95
65534;BME280;53640;55.838;37.184;2022-08-23T02:19:16;100103.03;;;20.82;35.89
65534;BME280;53640;55.838;37.184;2022-08-23T02:21:43;100105.22;;;20.80;36.06
65534;BME280;53640;55.838;37.184;2022-08-23T02:24:17;100117.06;;;20.86;35.65
65534;BME280;53640;55.838;37.184;2022-08-23T02:26:50;100124.75;;;20.84;36.04
65534;BME280;53640;55.838;37.184;2022-08-23T02:29:19;100086.63;;;20.55;36.19
65534;BME280;53640;55.838;37.184;2022-08-23T02:31:48;100138.78;;;20.82;36.09
65534;BME280;53640;55.838;37.184;2022-08-23T02:34:17;100136.81;;;20.78;36.35
65534;BME280;53640;55.838;37.184;2022-08-23T02:36:44;100088.50;;;20.50;36.08
65534;BME280;53640;55.838;37.184;2022-08-23T02:39:12;100133.47;;;20.71;36.67
65534;BME280;53640;55.838;37.184;2022-08-23T02:41:39;100113.91;;;20.62;36.22
65534;BME280;53640;55.838;37.184;2022-08-23T02:44:08;100135.66;;;20.68;36.55
65534;BME280;53640;55.838;37.184;2022-08-23T02:46:37;100140.63;;;20.72;36.60
65534;BME280;53640;55.838;37.184;2022-08-23T02:49:05;100097.03;;;20.48;36.81
65534;BME280;53640;55.838;37.184;2022-08-23T02:51:31;100131.78;;;20.64;36.56
65534;BME280;53640;55.838;37.184;2022-08-23T02:53:58;100107.19;;;20.48;36.89
65534;BME280;53640;55.838;37.184;2022-08-23T02:56:27;100123.50;;;20.59;36.71
65534;BME280;53640;55.838;37.184;2022-08-23T02:58:53;100119.84;;;20.49;36.79
65534;BME280;53640;55.838;37.184;2022-08-23T03:01:29;100138.94;;;20.65;36.58
65534;BME280;53640;55.838;37.184;2022-08-23T03:04:02;100129.00;;;20.59;36.71
65534;BME280;53640;55.838;37.184;2022-08-23T03:06:30;100087.84;;;20.32;36.34
65534;BME280;53640;55.838;37.184;2022-08-23T03:08:57;100091.44;;;20.38;36.85
65534;BME280;53640;55.838;37.184;2022-08-23T03:11:24;100101.66;;;20.42;36.99
65534;BME280;53640;55.838;37.184;2022-08-23T03:13:53;100143.91;;;20.68;36.54
65534;BME280;53640;55.838;37.184;2022-08-23T03:16:22;100113.25;;;20.50;36.71
65534;BME280;53640;55.838;37.184;2022-08-23T03:18:49;100135.41;;;20.70;36.80
65534;BME280;53640;55.838;37.184;2022-08-23T03:21:16;100113.53;;;20.53;36.43
65534;BME280;53640;55.838;37.184;2022-08-23T03:23:44;100124.34;;;20.65;36.35
65534;BME280;53640;55.838;37.184;2022-08-23T03:26:12;100107.75;;;20.50;36.52
65534;BME280;53640;55.838;37.184;2022-08-23T03:28:40;100129.28;;;20.58;37.16
65534;BME280;53640;55.838;37.184;2022-08-23T03:31:09;100106.91;;;20.44;36.71
65534;BME280;53640;55.838;37.184;2022-08-23T03:33:47;100149.91;;;20.60;36.62
65534;BME280;53640;55.838;37.184;2022-08-23T03:36:13;100115.41;;;20.42;36.65
65534;BME280;53640;55.838;37.184;2022-08-23T03:38:40;100161.00;;;20.71;37.30
65534;BME280;53640;55.838;37.184;2022-08-23T03:41:10;100073.69;;;20.13;37.29
65534;BME280;53640;55.838;37.184;2022-08-23T03:43:37;100112.38;;;20.39;37.39
65534;BME280;53640;55.838;37.184;2022-08-23T03:46:06;100125.56;;;20.42;37.16
65534;BME280;53640;55.838;37.184;2022-08-23T03:48:35;100163.13;;;20.63;37.06
65534;BME280;53640;55.838;37.184;2022-08-23T03:51:03;100124.72;;;20.36;37.08
65534;BME280;53640;55.838;37.184;2022-08-23T03:53:30;100136.28;;;20.38;37.60
65534;BME280;53640;55.838;37.184;2022-08-23T03:55:57;100164.16;;;20.52;37.39
65534;BME280;53640;55.838;37.184;2022-08-23T03:58:23;100094.53;;;20.09;37.83
65534;BME280;53640;55.838;37.184;2022-08-23T04:00:52;100130.44;;;20.30;37.54
65534;BME280;53640;55.838;37.184;2022-08-23T04:03:21;100164.44;;;20.51;37.90
65534;BME280;53640;55.838;37.184;2022-08-23T04:05:59;100076.25;;;19.93;37.51
65534;BME280;53640;55.838;37.184;2022-08-23T04:08:28;100151.44;;;20.41;37.98
65534;BME280;53640;55.838;37.184;2022-08-23T04:10:57;100177.09;;;20.52;38.07
65534;BME280;53640;55.838;37.184;2022-08-23T04:13:25;100153.03;;;20.32;37.75
65534;BME280;53640;55.838;37.184;2022-08-23T04:16:16;100094.34;;;19.89;37.81
65534;BME280;53640;55.838;37.184;2022-08-23T04:19:13;100076.44;;;19.81;37.70
65534;BME280;53640;55.838;37.184;2022-08-23T04:21:58;100101.03;;;19.98;37.99
65534;BME280;53640;55.838;37.184;2022-08-23T04:24:37;100083.38;;;19.89;38.04
65534;BME280;53640;55.838;37.184;2022-08-23T04:27:07;100130.34;;;20.14;38.39
65534;BME280;53640;55.838;37.184;2022-08-23T04:29:51;100144.72;;;20.27;38.29
65534;BME280;53640;55.838;37.184;2022-08-23T04:32:18;100151.94;;;20.33;38.53
65534;BME280;53640;55.838;37.184;2022-08-23T04:34:44;100083.16;;;19.95;37.96
65534;BME280;53640;55.838;37.184;2022-08-23T04:37:17;100076.81;;;19.95;38.18
65534;BME280;53640;55.838;37.184;2022-08-23T04:39:46;100164.69;;;20.49;38.36
65534;BME280;53640;55.838;37.184;2022-08-23T04:42:41;100058.13;;;19.97;38.26
65534;BME280;53640;55.838;37.184;2022-08-23T04:45:08;100102.41;;;20.28;37.94
65534;BME280;53640;55.838;37.184;2022-08-23T04:47:36;100192.53;;;20.95;38.21
65534;BME280;53640;55.838;37.184;2022-08-23T04:50:08;100116.34;;;20.58;37.82
65534;BME280;53640;55.838;37.184;2022-08-23T04:52:35;100184.84;;;21.02;38.22
65534;BME280;53640;55.838;37.184;2022-08-23T04:55:04;100205.91;;;21.29;38.31
65534;BME280;53640;55.838;37.184;2022-08-23T04:57:47;100113.72;;;20.79;37.86
65534;BME280;53640;55.838;37.184;2022-08-23T05:00:18;100077.84;;;20.63;37.97
65534;BME280;53640;55.838;37.184;2022-08-23T05:02:53;100152.41;;;21.09;37.40
65534;BME280;53640;55.838;37.184;2022-08-23T05:05:21;100192.75;;;21.41;37.63
65534;BME280;53640;55.838;37.184;2022-08-23T05:07:48;100170.69;;;21.36;37.53
65534;BME280;53640;55.838;37.184;2022-08-23T05:10:15;100205.50;;;21.62;37.38
65534;BME280;53640;55.838;37.184;2022-08-23T05:12:46;100213.81;;;21.68;37.79
65534;BME280;53640;55.838;37.184;2022-08-23T05:15:15;100212.72;;;21.74;37.71
65534;BME280;53640;55.838;37.184;2022-08-23T05:17:45;100167.22;;;21.56;37.24
65534;BME280;53640;55.838;37.184;2022-08-23T05:20:12;100212.75;;;21.84;37.62
65534;BME280;53640;55.838;37.184;2022-08-23T05:22:40;100201.19;;;21.87;37.31
65534;BME280;53640;55.838;37.184;2022-08-23T05:25:27;100215.25;;;21.96;37.50
65534;BME280;53640;55.838;37.184;2022-08-23T05:28:16;100188.50;;;21.86;37.28
65534;BME280;53640;55.838;37.184;2022-08-23T05:30:44;100213.34;;;22.01;37.36
65534;BME280;53640;55.838;37.184;2022-08-23T05:33:11;100217.53;;;22.14;37.18
65534;BME280;53640;55.838;37.184;2022-08-23T05:35:38;100188.53;;;22.01;36.82
65534;BME280;53640;55.838;37.184;2022-08-23T05:38:05;100225.81;;;22.29;37.24
65534;BME280;53640;55.838;37.184;2022-08-23T05:40:31;100215.31;;;22.26;37.51
65534;BME280;53640;55.838;37.184;2022-08-23T05:43:06;100177.25;;;22.18;37.14
65534;BME280;53640;55.838;37.184;2022-08-23T05:45:36;100224.41;;;22.52;36.82
65534;BME280;53640;55.838;37.184;2022-08-23T05:48:03;100226.06;;;22.64;36.81
65534;BME280;53640;55.838;37.184;2022-08-23T05:50:41;100183.03;;;22.47;36.59
65534;BME280;53640;55.838;37.184;2022-08-23T05:53:08;100205.09;;;22.63;37.00
65534;BME280;53640;55.838;37.184;2022-08-23T05:55:36;100189.66;;;22.67;36.42
65534;BME280;53640;55.838;37.184;2022-08-23T05:58:17;100196.28;;;22.81;36.38
65534;BME280;53640;55.838;37.184;2022-08-23T06:00:44;100196.53;;;22.90;36.19
65534;BME280;53640;55.838;37.184;2022-08-23T06:03:11;100203.41;;;23.07;35.85
65534;BME280;53640;55.838;37.184;2022-08-23T06:05:39;100205.56;;;23.16;35.92
65534;BME280;53640;55.838;37.184;2022-08-23T06:08:07;100238.63;;;23.46;35.78
65534;BME280;53640;55.838;37.184;2022-08-23T06:10:35;100204.97;;;23.39;35.78
65534;BME280;53640;55.838;37.184;2022-08-23T06:13:10;100204.63;;;23.51;35.73
65534;BME280;53640;55.838;37.184;2022-08-23T06:15:42;100238.81;;;23.70;35.33
65534;BME280;53640;55.838;37.184;2022-08-23T06:18:10;100210.91;;;23.67;35.37
65534;BME280;53640;55.838;37.184;2022-08-23T06:20:40;100232.31;;;24.00;34.84
65534;BME280;53640;55.838;37.184;2022-08-23T06:23:07;100239.59;;;24.25;34.96
65534;BME280;53640;55.838;37.184;2022-08-23T06:25:38;100209.78;;;24.17;34.58
65534;BME280;53640;55.838;37.184;2022-08-23T06:28:11;100246.25;;;24.64;34.02
65534;BME280;53640;55.838;37.184;2022-08-23T06:30:38;100237.28;;;24.77;34.00
65534;BME280;53640;55.838;37.184;2022-08-23T06:33:24;100237.34;;;24.96;33.61
65534;BME280;53640;55.838;37.184;2022-08-23T06:36:12;100181.31;;;24.80;33.18
65534;BME280;53640;55.838;37.184;2022-08-23T06:39:07;100219.13;;;25.19;33.38
65534;BME280;53640;55.838;37.184;2022-08-23T06:42:02;100242.94;;;25.44;32.96
65534;BME280;53640;55.838;37.184;2022-08-23T06:44:30;100254.59;;;25.65;32.95
65534;BME280;53640;55.838;37.184;2022-08-23T06:47:20;100261.91;;;25.80;32.75
65534;BME280;53640;55.838;37.184;2022-08-23T06:49:47;100262.03;;;25.93;32.47
65534;BME280;53640;55.838;37.184;2022-08-23T06:52:14;100254.28;;;26.09;32.28
65534;BME280;53640;55.838;37.184;2022-08-23T06:54:56;100252.28;;;26.34;31.85
65534;BME280;53640;55.838;37.184;2022-08-23T06:57:52;100242.91;;;26.49;31.30
65534;BME280;53640;55.838;37.184;2022-08-23T07:00:37;100241.88;;;26.58;30.71
65534;BME280;53640;55.838;37.184;2022-08-23T07:03:24;100225.97;;;26.64;30.84
65534;BME280;53640;55.838;37.184;2022-08-23T07:06:12;100184.38;;;26.59;30.73
65534;BME280;53640;55.838;37.184;2022-08-23T07:08:39;100212.47;;;26.90;30.41
65534;BME280;53640;55.838;37.184;2022-08-23T07:11:06;100221.53;;;26.96;30.38
65534;BME280;53640;55.838;37.184;2022-08-23T07:13:32;100230.28;;;27.03;29.92
65534;BME280;53640;55.838;37.184;2022-08-23T07:16:00;100253.97;;;27.14;30.06
65534;BME280;53640;55.838;37.184;2022-08-23T07:18:31;100255.09;;;27.13;29.48
65534;BME280;53640;55.838;37.184;2022-08-23T07:21:00;100252.44;;;27.22;29.61
65534;BME280;53640;55.838;37.184;2022-08-23T07:23:30;100246.47;;;27.28;29.87
65534;BME280;53640;55.838;37.184;2022-08-23T07:26:13;100261.53;;;27.41;28.79
65534;BME280;53640;55.838;37.184;2022-08-23T07:28:40;100195.69;;;26.95;29.25
65534;BME280;53640;55.838;37.184;2022-08-23T07:33:44;100258.81;;;27.50;28.85
65534;BME280;53640;55.838;37.184;2022-08-23T07:36:22;100268.94;;;27.59;28.75
65534;BME280;53640;55.838;37.184;2022-08-23T07:38:50;100255.75;;;27.65;28.71
65534;BME280;53640;55.838;37.184;2022-08-23T07:41:23;100236.66;;;27.72;28.42
65534;BME280;53640;55.838;37.184;2022-08-23T07:43:53;100278.56;;;27.89;28.51
65534;BME280;53640;55.838;37.184;2022-08-23T07:46:20;100263.66;;;27.85;28.21
65534;BME280;53640;55.838;37.184;2022-08-23T07:48:47;100267.66;;;27.93;27.96
65534;BME280;53640;55.838;37.184;2022-08-23T07:51:19;100245.31;;;27.84;28.28
65534;BME280;53640;55.838;37.184;2022-08-23T07:53:47;100280.31;;;28.13;28.40
65534;BME280;53640;55.838;37.184;2022-08-23T07:56:18;100266.72;;;28.11;27.91
65534;BME280;53640;55.838;37.184;2022-08-23T07:59:06;100230.56;;;27.98;28.20
65534;BME280;53640;55.838;37.184;2022-08-23T08:01:53;100277.81;;;28.25;28.24
65534;BME280;53640;55.838;37.184;2022-08-23T08:04:21;100274.84;;;28.22;28.29
65534;BME280;53640;55.838;37.184;2022-08-23T08:06:49;100269.06;;;28.18;28.09
65534;BME280;53640;55.838;37.184;2022-08-23T08:09:18;100242.69;;;28.02;28.18
65534;BME280;53640;55.838;37.184;2022-08-23T08:11:46;100252.78;;;28.11;28.40
65534;BME280;53640;55.838;37.184;2022-08-23T08:14:15;100284.25;;;28.34;28.66
65534;BME280;53640;55.838;37.184;2022-08-23T08:16:55;100270.72;;;28.42;28.35
65534;BME280;53640;55.838;37.184;2022-08-23T08:19:55;100271.13;;;28.49;28.35
65534;BME280;53640;55.838;37.184;2022-08-23T08:22:51;100250.00;;;28.48;28.06
65534;BME280;53640;55.838;37.184;2022-08-23T08:25:35;100266.00;;;28.65;28.36
65534;BME280;53640;55.838;37.184;2022-08-23T08:28:05;100211.59;;;28.45;28.38
65534;BME280;53640;55.838;37.184;2022-08-23T08:30:32;100261.56;;;28.86;28.27
65534;BME280;53640;55.838;37.184;2022-08-23T08:33:00;100223.44;;;28.73;28.29
65534;BME280;53640;55.838;37.184;2022-08-23T08:35:26;100258.75;;;29.08;27.93
65534;BME280;53640;55.838;37.184;2022-08-23T08:37:53;100264.75;;;29.33;27.55
65534;BME280;53640;55.838;37.184;2022-08-23T08:40:26;100241.44;;;29.29;27.46
65534;BME280;53640;55.838;37.184;2022-08-23T08:43:21;100276.06;;;29.76;27.54
65534;BME280;53640;55.838;37.184;2022-08-23T08:46:22;100270.91;;;30.10;27.00
65534;BME280;53640;55.838;37.184;2022-08-23T08:48:53;100245.13;;;30.21;26.33
65534;BME280;53640;55.838;37.184;2022-08-23T08:51:48;100274.38;;;30.59;25.74
65534;BME280;53640;55.838;37.184;2022-08-23T08:54:20;100280.72;;;30.76;25.44
65534;BME280;53640;55.838;37.184;2022-08-23T08:56:53;100251.81;;;30.72;25.40
65534;BME280;53640;55.838;37.184;2022-08-23T08:59:31;100272.66;;;31.01;25.26
65534;BME280;53640;55.838;37.184;2022-08-23T09:02:13;100218.19;;;30.98;25.26
65534;BME280;53640;55.838;37.184;2022-08-23T09:04:41;100281.38;;;31.46;24.49
65534;BME280;53640;55.838;37.184;2022-08-23T09:10:34;100230.75;;;31.31;24.87
65534;BME280;53640;55.838;37.184;2022-08-23T09:13:43;100268.56;;;31.37;24.38
65534;BME280;53640;55.838;37.184;2022-08-23T09:16:31;100259.28;;;31.15;24.87
65534;BME280;53640;55.838;37.184;2022-08-23T09:19:05;100225.63;;;30.86;24.94
65534;BME280;53640;55.838;37.184;2022-08-23T09:21:42;100267.53;;;30.94;25.41
65534;BME280;53640;55.838;37.184;2022-08-23T09:24:09;100228.47;;;30.68;25.48
65534;BME280;53640;55.838;37.184;2022-08-23T09:26:49;100225.69;;;30.60;25.53
65534;BME280;53640;55.838;37.184;2022-08-23T09:29:22;100274.31;;;30.85;25.04
65534;BME280;53640;55.838;37.184;2022-08-23T09:31:52;100237.50;;;30.65;25.37
65534;BME280;53640;55.838;37.184;2022-08-23T09:34:37;100247.03;;;30.82;25.06
65534;BME280;53640;55.838;37.184;2022-08-23T09:37:16;100255.06;;;31.01;24.95
65534;BME280;53640;55.838;37.184;2022-08-23T09:39:49;100222.03;;;30.85;25.57
65534;BME280;53640;55.838;37.184;2022-08-23T09:42:32;100221.97;;;30.94;25.05
65534;BME280;53640;55.838;37.184;2022-08-23T09:45:04;100253.16;;;31.22;25.01
65534;BME280;53640;55.838;37.184;2022-08-23T09:47:36;100239.78;;;31.66;23.74
65534;BME280;53640;55.838;37.184;2022-08-23T09:50:16;100218.69;;;31.89;23.34
65534;BME280;53640;55.838;37.184;2022-08-23T09:53:03;100219.44;;;32.19;22.18
65534;BME280;53640;55.838;37.184;2022-08-23T09:55:36;100249.41;;;32.61;21.43
65534;BME280;53640;55.838;37.184;2022-08-23T09:58:16;100247.91;;;32.63;20.64
65534;BME280;53640;55.838;37.184;2022-08-23T10:01:17;100198.47;;;32.47;20.47
65534;BME280;53640;55.838;37.184;2022-08-23T10:04:11;100243.25;;;32.67;20.25
65534;BME280;53640;55.838;37.184;2022-08-23T10:06:45;100173.94;;;32.43;20.64
65534;BME280;53640;55.838;37.184;2022-08-23T10:09:31;100192.78;;;32.67;20.19
65534;BME280;53640;55.838;37.184;2022-08-23T10:12:01;100199.75;;;32.95;19.86
65534;BME280;53640;55.838;37.184;2022-08-23T10:14:34;100227.41;;;33.42;19.76
65534;BME280;53640;55.838;37.184;2022-08-23T10:17:08;100263.75;;;33.87;19.54
65534;BME280;53640;55.838;37.184;2022-08-23T10:28:03;100214.31;;;34.98;17.81
65534;BME280;53640;55.838;37.184;2022-08-23T10:33:29;100248.19;;;35.49;18.25
65534;BME280;53640;55.838;37.184;2022-08-23T10:36:27;100267.56;;;35.86;17.10
65534;BME280;53640;55.838;37.184;2022-08-23T10:39:00;100234.50;;;35.83;17.16
65534;BME280;53640;55.838;37.184;2022-08-23T10:46:29;100244.13;;;35.82;17.64
65534;BME280;53640;55.838;37.184;2022-08-23T10:48:58;100247.03;;;35.86;17.64
65534;BME280;53640;55.838;37.184;2022-08-23T10:51:33;100246.25;;;35.69;17.02
65534;BME280;53640;55.838;37.184;2022-08-23T10:54:06;100247.78;;;35.51;17.42
65534;BME280;53640;55.838;37.184;2022-08-23T10:56:35;100241.19;;;35.43;17.38
65534;BME280;53640;55.838;37.184;2022-08-23T10:59:15;100250.09;;;35.61;16.52
65534;BME280;53640;55.838;37.184;2022-08-23T11:07:32;100221.22;;;36.19;16.73
65534;BME280;53640;55.838;37.184;2022-08-23T11:12:32;100232.09;;;36.01;16.51
65534;BME280;53640;55.838;37.184;2022-08-23T11:18:00;100248.38;;;35.57;16.94
65534;BME280;53640;55.838;37.184;2022-08-23T11:23:45;100246.03;;;35.59;17.39
65534;BME280;53640;55.838;37.184;2022-08-23T11:34:42;100221.41;;;35.24;17.58
65534;BME280;53640;55.838;37.184;2022-08-23T11:45:29;100218.72;;;35.98;17.50
65534;BME280;53640;55.838;37.184;2022-08-23T12:04:59;100205.25;;;34.89;15.79
65534;BME280;53640;55.838;37.184;2022-08-23T12:21:23;100207.56;;;35.50;15.72
65534;BME280;53640;55.838;37.184;2022-08-23T12:23:56;100211.66;;;35.88;15.79
65534;BME280;53640;55.838;37.184;2022-08-23T12:26:33;100235.66;;;36.56;16.01
65534;BME280;53640;55.838;37.184;2022-08-23T12:29:10;100235.94;;;37.16;15.56
65534;BME280;53640;55.838;37.184;2022-08-23T12:32:00;100226.59;;;37.62;14.13
65534;BME280;53640;55.838;37.184;2022-08-23T12:34:59;100226.47;;;37.78;13.77
65534;BME280;53640;55.838;37.184;2022-08-23T12:37:42;100231.59;;;38.02;13.09
65534;BME280;53640;55.838;37.184;2022-08-23T12:40:15;100209.50;;;38.42;12.77
65534;BME280;53640;55.838;37.184;2022-08-23T12:42:46;100222.03;;;38.81;13.18
65534;BME280;53640;55.838;37.184;2022-08-23T12:45:18;100199.91;;;38.91;12.99
65534;BME280;53640;55.838;37.184;2022-08-23T12:47:58;100217.69;;;39.35;12.90
65534;BME280;53640;55.838;37.184;2022-08-23T12:50:36;100197.19;;;39.60;12.96
65534;BME280;53640;55.838;37.184;2022-08-23T12:53:07;100196.16;;;39.90;12.46
65534;BME280;53640;55.838;37.184;2022-08-23T12:55:40;100179.16;;;39.97;11.68
65534;BME280;53640;55.838;37.184;2022-08-23T12:58:08;100199.19;;;40.40;11.12
65534;BME280;53640;55.838;37.184;2022-08-23T13:00:39;100188.69;;;40.54;11.24
65534;BME280;53640;55.838;37.184;2022-08-23T13:03:15;100215.53;;;40.93;11.35
65534;BME280;53640;55.838;37.184;2022-08-23T13:06:00;100185.13;;;40.90;10.99
65534;BME280;53640;55.838;37.184;2022-08-23T13:08:32;100183.06;;;41.05;9.95
65534;BME280;53640;55.838;37.184;2022-08-23T13:11:00;100199.66;;;40.81;10.73
65534;BME280;53640;55.838;37.184;2022-08-23T13:13:27;100223.09;;;40.39;11.02
65534;BME280;53640;55.838;37.184;2022-08-23T13:15:57;100197.16;;;39.56;11.38
65534;BME280;53640;55.838;37.184;2022-08-23T13:18:28;100187.84;;;38.97;11.62
65534;BME280;53640;55.838;37.184;2022-08-23T13:23:46;100183.81;;;38.98;12.02
65534;BME280;53640;55.838;37.184;2022-08-23T13:26:42;100209.53;;;39.30;11.90
65534;BME280;53640;55.838;37.184;2022-08-23T13:29:19;100172.97;;;39.11;11.91
65534;BME280;53640;55.838;37.184;2022-08-23T13:37:02;100164.78;;;38.99;11.75
65534;BME280;53640;55.838;37.184;2022-08-23T13:39:30;100120.94;;;38.37;12.32
65534;BME280;53640;55.838;37.184;2022-08-23T13:41:58;100157.16;;;37.91;12.87
65534;BME280;53640;55.838;37.184;2022-08-23T13:44:25;100177.16;;;37.49;13.43
65534;BME280;53640;55.838;37.184;2022-08-23T13:46:51;100179.56;;;36.97;13.91
65534;BME280;53640;55.838;37.184;2022-08-23T13:49:34;100201.44;;;36.58;14.21
65534;BME280;53640;55.838;37.184;2022-08-23T13:52:07;100170.72;;;35.94;14.58
65534;BME280;53640;55.838;37.184;2022-08-23T13:54:35;100202.53;;;35.75;15.08
65534;BME280;53640;55.838;37.184;2022-08-23T13:57:07;100189.06;;;35.34;15.83
65534;BME280;53640;55.838;37.184;2022-08-23T13:59:47;100196.06;;;35.08;15.63
65534;BME280;53640;55.838;37.184;2022-08-23T14:02:39;100163.09;;;34.61;16.48
65534;BME280;53640;55.838;37.184;2022-08-23T14:05:06;100055.44;;;33.73;16.83
65534;BME280;53640;55.838;37.184;2022-08-23T14:07:34;100105.28;;;33.76;16.59
65534;BME280;53640;55.838;37.184;2022-08-23T14:10:05;100071.84;;;33.30;16.92
65534;BME280;53640;55.838;37.184;2022-08-23T14:12:33;100181.38;;;33.83;17.54
65534;BME280;53640;55.838;37.184;2022-08-23T14:15:03;100171.94;;;33.51;17.58
65534;BME280;53640;55.838;37.184;2022-08-23T14:17:37;100181.56;;;33.37;17.92
65534;BME280;53640;55.838;37.184;2022-08-23T14:20:04;100208.06;;;33.28;18.05
65534;BME280;53640;55.838;37.184;2022-08-23T14:22:33;100174.16;;;32.96;17.86
65534;BME280;53640;55.838;37.184;2022-08-23T14:24:59;100176.09;;;32.83;18.13
65534;BME280;53640;55.838;37.184;2022-08-23T14:27:26;100168.47;;;32.59;18.55
65534;BME280;53640;55.838;37.184;2022-08-23T14:29:52;100157.66;;;32.37;18.39
65534;BME280;53640;55.838;37.184;2022-08-23T14:32:18;100159.94;;;32.23;19.18
65534;BME280;53640;55.838;37.184;2022-08-23T14:34:44;100178.50;;;32.27;19.33
65534;BME280;53640;55.838;37.184;2022-08-23T14:37:11;100183.75;;;32.16;19.49
65534;BME280;53640;55.838;37.184;2022-08-23T14:39:37;100144.94;;;31.85;19.24
65534;BME280;53640;55.838;37.184;2022-08-23T14:42:04;100157.97;;;31.81;19.17
65534;BME280;53640;55.838;37.184;2022-08-23T14:44:30;100195.78;;;31.96;19.89
65534;BME280;53640;55.838;37.184;2022-08-23T14:46:56;100184.00;;;31.82;19.56
65534;BME280;53640;55.838;37.184;2022-08-23T14:49:23;100190.09;;;31.84;19.65
65534;BME280;53640;55.838;37.184;2022-08-23T14:51:49;100145.34;;;31.54;20.35